createdAt,value
2022-08-16T00:01:17.413Z,1.17
2022-08-16T00:03:44.955Z,1.20
2022-08-16T00:06:12.150Z,1.20
2022-08-16T00:08:42.310Z,1.10
2022-08-16T00:11:15.900Z,1.40
2022-08-16T00:13:53.026Z,1.00
2022-08-16T00:17:06.292Z,1.20
2022-08-16T00:19:13.375Z,1.30
2022-08-16T00:21:41.846Z,1.15
2022-08-16T00:24:11.380Z,1.30
2022-08-16T00:26:44.077Z,1.00
2022-08-16T00:29:15.955Z,1.10
2022-08-16T00:31:59.866Z,1.15
2022-08-16T00:34:44.672Z,1.03
2022-08-16T00:37:18.658Z,1.17
2022-08-16T00:39:56.992Z,1.23
2022-08-16T00:42:31.470Z,1.40
2022-08-16T00:45:35.850Z,1.17
2022-08-16T00:48:30.539Z,1.30
2022-08-16T00:50:55.284Z,1.23
2022-08-16T00:53:22.524Z,1.17
2022-08-16T00:55:53.379Z,1.30
2022-08-16T00:58:35.085Z,1.30
2022-08-16T01:01:08.311Z,1.50
2022-08-16T01:03:37.332Z,1.50
2022-08-16T01:06:32.644Z,1.45
2022-08-16T01:09:00.045Z,1.65
2022-08-16T01:11:29.358Z,1.50
2022-08-16T01:14:02.707Z,1.63
2022-08-16T01:16:30.257Z,1.48
2022-08-16T01:19:16.165Z,1.42
2022-08-16T01:22:48.140Z,1.25
2022-08-16T01:24:55.349Z,1.60
2022-08-16T01:27:29.164Z,1.10
2022-08-16T01:30:19.337Z,1.30
2022-08-16T01:33:02.119Z,1.27
2022-08-16T01:35:53.374Z,1.30
2022-08-16T01:38:28.073Z,1.77
2022-08-16T01:41:02.324Z,1.30
2022-08-16T01:43:31.541Z,1.40
2022-08-16T01:46:37.956Z,1.40
2022-08-16T01:49:16.684Z,1.42
2022-08-16T01:51:48.594Z,1.35
2022-08-16T01:54:16.867Z,1.50
2022-08-16T01:56:57.422Z,1.30
2022-08-16T01:59:25.115Z,1.30
2022-08-16T02:01:59.853Z,1.10
2022-08-16T02:04:49.709Z,1.25
2022-08-16T02:07:18.362Z,1.40
2022-08-16T02:09:58.883Z,1.70
2022-08-16T02:12:39.786Z,1.63
2022-08-16T02:15:18.154Z,1.27
2022-08-16T02:17:53.747Z,1.45
2022-08-16T02:20:26.367Z,1.40
2022-08-16T02:22:55.212Z,1.30
2022-08-16T02:25:22.794Z,1.30
2022-08-16T02:27:51.493Z,1.10
2022-08-16T02:30:35.900Z,1.85
2022-08-16T02:33:10.846Z,1.60
2022-08-16T02:35:49.789Z,1.70
2022-08-16T02:38:21.711Z,1.30
2022-08-16T02:40:48.811Z,1.50
2022-08-16T02:43:16.077Z,1.75
2022-08-16T02:45:43.583Z,1.60
2022-08-16T02:48:29.133Z,1.50
2022-08-16T02:51:04.190Z,1.60
2022-08-16T02:53:36.618Z,1.80
2022-08-16T02:56:05.599Z,1.90
2022-08-16T02:58:37.086Z,1.67
2022-08-16T03:01:03.979Z,1.40
2022-08-16T03:04:41.537Z,1.90
2022-08-16T03:06:41.347Z,1.50
2022-08-16T03:09:13.096Z,1.60
2022-08-16T03:11:40.952Z,1.75
2022-08-16T03:14:08.353Z,1.42
2022-08-16T03:16:39.113Z,1.65
2022-08-16T03:19:09.851Z,1.77
2022-08-16T03:21:38.614Z,2.03
2022-08-16T03:24:29.425Z,1.85
2022-08-16T03:27:03.091Z,1.70
2022-08-16T03:29:32.519Z,1.55
2022-08-16T03:32:01.823Z,1.55
2022-08-16T03:34:30.542Z,1.60
2022-08-16T03:36:58.078Z,1.50
2022-08-16T03:39:25.574Z,1.77
2022-08-16T03:41:59.599Z,1.60
2022-08-16T03:44:43.635Z,1.40
2022-08-16T03:47:18.509Z,1.83
2022-08-16T03:49:51.612Z,1.80
2022-08-16T03:52:23.850Z,1.60
2022-08-16T03:54:59.406Z,1.70
2022-08-16T03:57:31.388Z,1.42
2022-08-16T03:59:59.529Z,1.50
2022-08-16T04:02:31.531Z,1.60
2022-08-16T04:04:58.929Z,1.80
2022-08-16T04:07:26.034Z,1.67
2022-08-16T04:09:52.851Z,1.42
2022-08-16T04:12:52.994Z,1.60
2022-08-16T04:15:09.363Z,1.45
2022-08-16T04:17:37.321Z,1.63
2022-08-16T04:20:13.169Z,1.60
2022-08-16T04:22:56.062Z,1.67
2022-08-16T04:25:23.427Z,1.58
2022-08-16T04:27:54.283Z,1.65
2022-08-16T04:30:32.145Z,1.90
2022-08-16T04:33:02.441Z,1.70
2022-08-16T04:35:34.263Z,1.40
2022-08-16T04:38:10.499Z,1.70
2022-08-16T04:40:38.482Z,1.65
2022-08-16T04:43:05.869Z,1.42
2022-08-16T04:45:35.283Z,1.80
2022-08-16T04:48:04.223Z,1.48
2022-08-16T04:50:31.044Z,1.70
2022-08-16T04:52:59.145Z,1.88
2022-08-16T04:55:31.672Z,1.50
2022-08-16T04:58:46.181Z,1.52
2022-08-16T05:00:53.648Z,1.77
2022-08-16T05:03:21.434Z,1.60
2022-08-16T05:05:58.932Z,1.50
2022-08-16T05:08:30.532Z,1.60
2022-08-16T05:11:05.771Z,1.75
2022-08-16T05:13:40.445Z,1.80
2022-08-16T05:16:22.897Z,1.90
2022-08-16T05:18:51.975Z,1.55
2022-08-16T05:21:20.877Z,1.88
2022-08-16T05:23:55.821Z,1.48
2022-08-16T05:26:27.885Z,1.45
2022-08-16T05:28:59.482Z,1.63
2022-08-16T05:31:30.545Z,1.42
2022-08-16T05:34:03.611Z,1.60
2022-08-16T05:36:33.931Z,1.80
2022-08-16T05:39:08.869Z,2.05
2022-08-16T05:41:45.099Z,1.70
2022-08-16T05:44:23.850Z,1.60
2022-08-16T05:46:57.279Z,1.70
2022-08-16T05:49:38.433Z,2.10
2022-08-16T05:52:11.195Z,2.50
2022-08-16T05:54:46.788Z,2.05
2022-08-16T05:57:16.300Z,2.00
2022-08-16T05:59:44.154Z,2.17
2022-08-16T06:02:10.933Z,1.75
2022-08-16T06:04:38.020Z,1.70
2022-08-16T06:07:25.223Z,1.75
2022-08-16T06:09:56.199Z,1.80
2022-08-16T06:12:27.194Z,1.85
2022-08-16T06:15:01.821Z,1.85
2022-08-16T06:17:42.997Z,1.65
2022-08-16T06:20:15.771Z,1.63
2022-08-16T06:22:47.655Z,1.85
2022-08-16T06:25:36.437Z,2.25
2022-08-16T06:28:09.639Z,1.65
2022-08-16T06:30:43.904Z,1.80
2022-08-16T06:33:19.483Z,2.00
2022-08-16T06:35:47.193Z,1.98
2022-08-16T06:38:22.243Z,1.77
2022-08-16T06:41:05.026Z,1.90
2022-08-16T06:43:33.420Z,2.33
2022-08-16T06:46:03.757Z,1.65
2022-08-16T06:48:32.724Z,1.60
2022-08-16T06:51:04.773Z,1.73
2022-08-16T06:53:35.433Z,1.80
2022-08-16T06:56:14.940Z,1.60
2022-08-16T06:58:51.999Z,2.00
2022-08-16T07:01:25.170Z,1.65
2022-08-16T07:04:10.422Z,1.70
2022-08-16T07:06:40.495Z,1.83
2022-08-16T07:09:11.698Z,2.03
2022-08-16T07:11:48.254Z,1.80
2022-08-16T07:14:24.543Z,1.90
2022-08-16T07:16:58.222Z,1.55
2022-08-16T07:20:02.034Z,1.67
2022-08-16T07:22:38.650Z,1.77
2022-08-16T07:25:06.245Z,1.85
2022-08-16T07:27:39.346Z,1.65
2022-08-16T07:30:39.251Z,1.58
2022-08-16T07:33:10.281Z,1.70
2022-08-16T07:35:51.066Z,1.85
2022-08-16T07:38:33.778Z,1.70
2022-08-16T07:41:09.539Z,1.60
2022-08-16T07:46:39.371Z,1.65
2022-08-16T07:49:02.545Z,1.77
2022-08-16T07:51:34.731Z,1.85
2022-08-16T07:54:09.475Z,1.60
2022-08-16T07:56:37.658Z,1.48
2022-08-16T07:59:05.892Z,1.60
2022-08-16T08:01:33.617Z,1.67
2022-08-16T08:04:04.197Z,1.75
2022-08-16T08:06:32.821Z,1.52
2022-08-16T08:09:00.557Z,1.65
2022-08-16T08:11:29.481Z,1.63
2022-08-16T08:14:03.285Z,1.52
2022-08-16T08:16:32.405Z,1.70
2022-08-16T08:19:03.140Z,1.63
2022-08-16T08:22:00.620Z,1.50
2022-08-16T08:24:20.592Z,1.77
2022-08-16T08:26:50.213Z,1.48
2022-08-16T08:29:23.211Z,1.67
2022-08-16T08:31:53.115Z,1.63
2022-08-16T08:34:21.275Z,1.50
2022-08-16T08:36:50.126Z,1.75
2022-08-16T08:39:22.566Z,1.58
2022-08-16T08:41:51.203Z,1.60
2022-08-16T08:44:28.690Z,1.48
2022-08-16T08:47:01.641Z,1.52
2022-08-16T08:49:47.076Z,1.60
2022-08-16T08:52:35.089Z,1.70
2022-08-16T08:55:10.957Z,1.52
2022-08-16T08:57:42.647Z,1.50
2022-08-16T09:00:13.770Z,1.52
2022-08-16T09:02:51.700Z,1.88
2022-08-16T09:05:22.319Z,1.38
2022-08-16T09:08:01.995Z,1.65
2022-08-16T09:10:33.857Z,1.73
2022-08-16T09:13:08.114Z,1.67
2022-08-16T09:15:37.741Z,1.58
2022-08-16T09:18:25.034Z,1.60
2022-08-16T09:20:59.503Z,1.55
2022-08-16T09:23:29.376Z,1.50
2022-08-16T09:25:56.386Z,1.60
2022-08-16T09:28:38.074Z,1.70
2022-08-16T09:31:11.024Z,1.63
2022-08-16T09:33:39.337Z,1.52
2022-08-16T09:36:12.121Z,1.70
2022-08-16T09:38:59.876Z,1.65
2022-08-16T09:41:28.167Z,1.60
2022-08-16T09:44:00.897Z,1.70
2022-08-16T09:46:44.560Z,1.50
2022-08-16T09:49:19.916Z,1.45
2022-08-16T09:51:49.996Z,1.45
2022-08-16T09:54:20.756Z,1.48
2022-08-16T09:56:53.455Z,1.73
2022-08-16T09:59:23.259Z,1.60
2022-08-16T10:01:51.593Z,1.60
2022-08-16T10:04:31.278Z,1.48
2022-08-16T10:07:11.934Z,1.52
2022-08-16T10:09:54.880Z,1.40
2022-08-16T10:12:45.923Z,1.80
2022-08-16T10:15:17.216Z,1.60
2022-08-16T10:18:01.348Z,1.50
2022-08-16T10:20:32.507Z,1.45
2022-08-16T10:23:07.449Z,1.55
2022-08-16T10:27:16.796Z,1.55
2022-08-16T10:28:30.483Z,1.63
2022-08-16T10:31:04.930Z,1.40
2022-08-16T10:33:34.212Z,1.40
2022-08-16T10:36:04.387Z,1.30
2022-08-16T10:38:36.496Z,1.70
2022-08-16T10:41:05.641Z,1.55
2022-08-16T10:43:36.206Z,1.45
2022-08-16T10:46:39.228Z,1.40
2022-08-16T10:48:55.011Z,1.50
2022-08-16T10:51:33.624Z,1.35
2022-08-16T10:54:28.883Z,1.40
2022-08-16T10:57:03.986Z,1.30
2022-08-16T10:59:43.957Z,1.30
2022-08-16T11:02:58.566Z,1.45
2022-08-16T11:05:10.595Z,1.52
2022-08-16T11:07:45.574Z,1.50
2022-08-16T11:16:25.455Z,1.40
2022-08-16T11:19:06.140Z,1.08
2022-08-16T11:22:23.094Z,1.10
2022-08-16T11:24:41.822Z,1.38
2022-08-16T11:27:20.360Z,1.58
2022-08-16T11:29:50.033Z,1.40
2022-08-16T11:32:19.961Z,1.40
2022-08-16T11:35:09.917Z,1.35
2022-08-16T11:38:05.747Z,1.30
2022-08-16T11:40:32.446Z,1.48
2022-08-16T11:43:01.501Z,1.30
2022-08-16T11:45:33.833Z,1.40
2022-08-16T11:48:05.920Z,1.30
2022-08-16T11:50:33.671Z,1.40
2022-08-16T11:53:05.629Z,1.35
2022-08-16T11:55:38.065Z,1.33
2022-08-16T11:58:06.738Z,1.30
2022-08-16T12:00:51.625Z,1.27
2022-08-16T12:03:25.091Z,1.60
2022-08-16T12:06:00.681Z,1.40
2022-08-16T12:08:28.694Z,1.55
2022-08-16T12:10:59.372Z,1.60
2022-08-16T12:13:29.719Z,1.30
2022-08-16T12:15:56.667Z,1.50
2022-08-16T12:18:24.573Z,1.30
2022-08-16T12:20:51.698Z,1.40
2022-08-16T12:23:23.197Z,1.20
2022-08-16T12:25:51.013Z,1.50
2022-08-16T12:28:37.084Z,1.25
2022-08-16T12:31:06.636Z,1.17
2022-08-16T12:33:44.512Z,1.13
2022-08-16T12:36:13.251Z,1.30
2022-08-16T12:38:48.280Z,1.20
2022-08-16T12:41:24.596Z,1.65
2022-08-16T12:43:56.841Z,1.10
2022-08-16T12:46:26.729Z,1.30
2022-08-16T12:48:59.361Z,1.23
2022-08-16T12:51:59.894Z,1.33
2022-08-16T12:54:21.968Z,1.40
2022-08-16T12:56:50.621Z,1.13
2022-08-16T12:59:20.510Z,1.33
2022-08-16T13:01:50.302Z,1.65
2022-08-16T13:04:20.396Z,1.20
2022-08-16T13:06:49.985Z,1.42
2022-08-16T13:09:23.531Z,1.20
2022-08-16T13:12:07.389Z,1.10
2022-08-16T13:14:39.739Z,1.45
2022-08-16T13:17:17.059Z,1.10
2022-08-16T13:22:35.250Z,1.20
2022-08-16T13:25:02.511Z,1.50
2022-08-16T13:28:03.206Z,1.15
2022-08-16T13:30:36.155Z,1.35
2022-08-16T13:33:10.744Z,1.30
2022-08-16T13:35:42.693Z,1.23
2022-08-16T13:38:11.118Z,1.27
2022-08-16T13:40:56.778Z,1.30
2022-08-16T13:43:26.388Z,1.20
2022-08-16T13:45:55.475Z,1.30
2022-08-16T13:48:24.732Z,1.20
2022-08-16T13:50:55.148Z,1.20
2022-08-16T13:53:28.210Z,1.10
2022-08-16T13:55:58.957Z,1.25
2022-08-16T13:58:35.519Z,1.20
2022-08-16T14:01:09.646Z,1.08
2022-08-16T14:03:38.808Z,1.30
2022-08-16T14:06:10.748Z,1.35
2022-08-16T14:08:42.452Z,1.15
2022-08-16T14:11:14.595Z,1.25
2022-08-16T14:13:42.931Z,1.20
2022-08-16T14:16:24.188Z,1.40
2022-08-16T14:18:57.271Z,1.40
2022-08-16T14:21:24.175Z,1.40
2022-08-16T14:23:54.535Z,1.10
2022-08-16T14:26:24.963Z,0.90
2022-08-16T14:28:52.534Z,1.08
2022-08-16T14:31:21.563Z,1.20
2022-08-16T14:33:50.395Z,0.95
2022-08-16T14:36:18.852Z,1.33
2022-08-16T14:38:57.655Z,1.23
2022-08-16T14:41:25.190Z,1.17
2022-08-16T14:43:52.028Z,1.25
2022-08-16T14:46:18.948Z,1.10
2022-08-16T14:48:46.154Z,0.90
2022-08-16T14:51:15.765Z,1.40
2022-08-16T14:53:45.330Z,1.48
2022-08-16T14:56:17.287Z,1.27
2022-08-16T14:58:51.696Z,1.00
2022-08-16T15:01:18.636Z,1.08
2022-08-16T15:03:46.083Z,1.10
2022-08-16T15:06:16.442Z,1.00
2022-08-16T15:08:43.903Z,1.00
2022-08-16T15:11:12.855Z,1.20
2022-08-16T15:13:41.144Z,1.20
2022-08-16T15:16:08.063Z,1.30
2022-08-16T15:18:35.164Z,1.05
2022-08-16T15:21:03.910Z,1.13
2022-08-16T15:23:33.604Z,1.20
2022-08-16T15:26:03.876Z,1.10
2022-08-16T15:28:33.008Z,1.27
2022-08-16T15:31:06.237Z,1.10
2022-08-16T15:33:35.918Z,1.20
2022-08-16T15:36:09.287Z,0.85
2022-08-16T15:39:03.066Z,1.08
2022-08-16T15:41:43.090Z,1.05
2022-08-16T15:44:13.244Z,1.17
2022-08-16T15:46:55.417Z,1.15
2022-08-16T15:49:23.372Z,1.20
2022-08-16T15:51:54.133Z,1.10
2022-08-16T15:54:30.653Z,1.40
2022-08-16T15:57:09.668Z,1.15
2022-08-16T15:59:48.885Z,1.00
2022-08-16T16:02:27.274Z,1.40
2022-08-16T16:04:56.101Z,1.17
2022-08-16T16:07:22.916Z,1.30
2022-08-16T16:09:53.063Z,1.40
2022-08-16T16:12:50.251Z,1.20
2022-08-16T16:15:07.459Z,1.10
2022-08-16T16:17:35.530Z,1.23
2022-08-16T16:20:04.462Z,1.05
2022-08-16T16:22:31.680Z,1.15
2022-08-16T16:24:58.468Z,1.13
2022-08-16T16:27:25.333Z,1.20
2022-08-16T16:29:58.150Z,1.30
2022-08-16T16:32:34.470Z,1.48
2022-08-16T16:35:06.045Z,1.20
2022-08-16T16:37:33.373Z,1.45
2022-08-16T16:40:01.310Z,1.20
2022-08-16T16:42:31.356Z,1.40
2022-08-16T16:45:01.604Z,1.30
2022-08-16T16:47:30.729Z,1.40
2022-08-16T16:50:09.207Z,1.10
2022-08-16T16:52:44.835Z,1.30
2022-08-16T16:55:14.755Z,1.27
2022-08-16T16:58:00.709Z,1.20
2022-08-16T17:00:37.614Z,1.30
2022-08-16T17:03:05.859Z,1.40
2022-08-16T17:05:44.294Z,1.27
2022-08-16T17:08:27.261Z,1.10
2022-08-16T17:10:55.830Z,1.20
2022-08-16T17:13:24.410Z,1.20
2022-08-16T17:15:53.017Z,1.23
2022-08-16T17:19:17.588Z,1.55
2022-08-16T17:21:08.654Z,1.33
2022-08-16T17:23:58.721Z,1.02
2022-08-16T17:26:30.175Z,1.02
2022-08-16T17:29:02.129Z,1.17
2022-08-16T17:31:41.150Z,1.33
2022-08-16T17:34:28.628Z,1.40
2022-08-16T17:37:05.153Z,1.30
2022-08-16T17:39:45.387Z,1.25
2022-08-16T17:42:24.442Z,1.30
2022-08-16T17:44:52.291Z,1.20
2022-08-16T17:47:19.174Z,1.30
2022-08-16T17:49:45.915Z,1.27
2022-08-16T17:52:12.988Z,1.60
2022-08-16T17:54:39.809Z,1.20
2022-08-16T17:57:06.657Z,1.20
2022-08-16T17:59:38.324Z,1.45
2022-08-16T18:02:14.427Z,1.35
2022-08-16T18:04:55.786Z,1.60
2022-08-16T18:07:22.780Z,2.35
2022-08-16T18:09:50.021Z,1.30
2022-08-16T18:12:54.322Z,1.27
2022-08-16T18:15:13.650Z,1.20
2022-08-16T18:17:41.854Z,1.30
2022-08-16T18:20:30.183Z,1.30
2022-08-16T18:23:22.496Z,1.25
2022-08-16T18:25:59.342Z,1.23
2022-08-16T18:28:28.379Z,1.52
2022-08-16T18:31:00.781Z,1.27
2022-08-16T18:33:28.373Z,1.10
2022-08-16T18:35:57.714Z,1.38
2022-08-16T18:38:24.979Z,1.48
2022-08-16T18:40:52.213Z,1.40
2022-08-16T18:43:21.911Z,1.20
2022-08-16T18:46:08.713Z,1.35
2022-08-16T18:48:35.723Z,1.65
2022-08-16T18:51:08.429Z,1.50
2022-08-16T18:53:38.383Z,1.40
2022-08-16T18:56:05.528Z,1.58
2022-08-16T18:58:33.834Z,1.48
2022-08-16T19:01:00.702Z,1.45
2022-08-16T19:03:31.768Z,1.52
2022-08-16T19:06:08.749Z,1.50
2022-08-16T19:08:39.306Z,1.52
2022-08-16T19:11:08.522Z,1.48
2022-08-16T19:13:35.690Z,1.70
2022-08-16T19:16:04.146Z,1.25
2022-08-16T19:18:36.410Z,1.45
2022-08-16T19:21:04.974Z,1.60
2022-08-16T19:23:35.919Z,1.35
2022-08-16T19:26:24.349Z,1.67
2022-08-16T19:28:58.954Z,1.80
2022-08-16T19:31:33.269Z,1.52
2022-08-16T19:34:01.386Z,1.70
2022-08-16T19:36:37.454Z,1.58
2022-08-16T19:41:36.087Z,1.52
2022-08-16T19:44:03.663Z,1.55
2022-08-16T19:46:30.564Z,1.75
2022-08-16T19:48:57.436Z,1.40
2022-08-16T19:51:24.256Z,2.33
2022-08-16T19:53:51.107Z,1.60
2022-08-16T19:56:18.681Z,1.80
2022-08-16T19:59:08.724Z,1.60
2022-08-16T20:01:34.872Z,1.77
2022-08-16T20:04:04.986Z,1.65
2022-08-16T20:06:32.212Z,2.00
2022-08-16T20:09:06.715Z,1.70
2022-08-16T20:11:34.789Z,1.90
2022-08-16T20:14:02.758Z,1.65
2022-08-16T20:16:29.879Z,1.65
2022-08-16T20:18:56.722Z,1.63
2022-08-16T20:21:24.228Z,1.85
2022-08-16T20:23:51.108Z,1.67
2022-08-16T20:26:18.823Z,1.65
2022-08-16T20:28:54.063Z,1.73
2022-08-16T20:31:25.445Z,1.63
2022-08-16T20:33:53.358Z,1.75
2022-08-16T20:36:20.364Z,1.70
2022-08-16T20:38:48.343Z,1.88
2022-08-16T20:41:16.516Z,1.67
2022-08-16T20:43:43.939Z,2.20
2022-08-16T20:46:12.554Z,1.70
2022-08-16T20:48:39.750Z,1.80
2022-08-16T20:51:10.353Z,1.70
2022-08-16T20:53:41.348Z,1.75
2022-08-16T20:56:09.164Z,1.90
2022-08-16T20:58:37.383Z,1.67
2022-08-16T21:01:06.921Z,1.75
2022-08-16T21:03:33.848Z,2.30
2022-08-16T21:06:04.215Z,1.80
2022-08-16T21:08:52.219Z,1.73
2022-08-16T21:11:21.492Z,1.80
2022-08-16T21:13:48.504Z,1.92
2022-08-16T21:16:16.405Z,2.10
2022-08-16T21:18:43.206Z,2.30
2022-08-16T21:21:12.000Z,1.88
2022-08-16T21:23:39.022Z,2.15
2022-08-16T21:26:10.725Z,2.05
2022-08-16T21:28:42.895Z,2.30
2022-08-16T21:31:11.570Z,2.05
2022-08-16T21:33:38.399Z,2.08
2022-08-16T21:36:05.543Z,2.28
2022-08-16T21:38:32.463Z,2.00
2022-08-16T21:41:00.424Z,2.05
2022-08-16T21:43:31.789Z,2.47
2022-08-16T21:45:59.905Z,2.00
2022-08-16T21:48:33.967Z,1.65
2022-08-16T21:51:04.943Z,2.40
2022-08-16T21:53:32.712Z,1.92
2022-08-16T21:56:00.172Z,2.30
2022-08-16T21:58:53.162Z,2.10
2022-08-16T22:01:23.040Z,2.00
2022-08-16T22:04:35.258Z,1.98
2022-08-16T22:06:38.222Z,2.10
2022-08-16T22:09:06.656Z,1.88
2022-08-16T22:11:33.452Z,2.20
2022-08-16T22:14:00.928Z,2.20
2022-08-16T22:16:49.699Z,2.50
2022-08-16T22:19:36.399Z,2.00
2022-08-16T22:22:03.420Z,2.22
2022-08-16T22:24:30.208Z,2.33
2022-08-16T22:26:57.021Z,2.35
2022-08-16T22:29:24.156Z,2.08
2022-08-16T22:31:51.012Z,1.80
2022-08-16T22:34:17.839Z,2.05
2022-08-16T22:36:44.892Z,2.00
2022-08-16T22:39:13.715Z,2.13
2022-08-16T22:41:43.203Z,2.08
2022-08-16T22:44:10.287Z,1.98
2022-08-16T22:46:38.785Z,2.08
2022-08-16T22:49:06.906Z,2.13
2022-08-16T22:51:35.235Z,2.22
2022-08-16T22:54:33.973Z,2.20
2022-08-16T22:56:49.055Z,2.17
2022-08-16T22:59:15.831Z,1.85
2022-08-16T23:01:43.973Z,2.03
2022-08-16T23:04:10.804Z,2.28
2022-08-16T23:06:37.590Z,2.00
2022-08-16T23:09:04.470Z,2.40
2022-08-16T23:11:31.305Z,2.17
2022-08-16T23:13:58.143Z,2.05
2022-08-16T23:16:32.490Z,2.38
2022-08-16T23:19:03.330Z,2.10
2022-08-16T23:21:30.678Z,1.92
2022-08-16T23:23:58.206Z,2.03
2022-08-16T23:26:43.842Z,1.90
2022-08-16T23:29:12.114Z,2.00
2022-08-16T23:31:49.467Z,2.10
2022-08-16T23:34:16.240Z,2.25
2022-08-16T23:36:43.049Z,2.10
2022-08-16T23:39:09.872Z,2.10
2022-08-16T23:41:36.709Z,2.03
2022-08-16T23:44:57.258Z,2.20
2022-08-16T23:46:50.765Z,2.42
2022-08-16T23:49:56.773Z,2.17
2022-08-16T23:52:08.699Z,2.10
2022-08-16T23:54:35.942Z,2.33
2022-08-16T23:57:02.927Z,2.20
2022-08-16T23:59:29.829Z,2.00
